sensor_id;sensor_type;location;lat;lon;timestamp;temperature;humidity
70300;HTU21D;57704;51.112;5.878;2022-12-20T00:01:44;14.17;62.86
70300;HTU21D;57704;51.112;5.878;2022-12-20T00:04:11;14.22;62.53
70300;HTU21D;57704;51.112;5.878;2022-12-20T00:06:37;14.24;62.47
70300;HTU21D;57704;51.112;5.878;2022-12-20T00:09:06;14.25;62.48
70300;HTU21D;57704;51.112;5.878;2022-12-20T00:11:34;14.25;62.54
70300;HTU21D;57704;51.112;5.878;2022-12-20T00:14:00;14.26;62.58
70300;HTU21D;57704;51.112;5.878;2022-12-20T00:16:28;14.22;62.65
70300;HTU21D;57704;51.112;5.878;2022-12-20T00:18:58;14.25;62.37
70300;HTU21D;57704;51.112;5.878;2022-12-20T00:21:25;14.23;62.73
70300;HTU21D;57704;51.112;5.878;2022-12-20T00:23:53;14.22;62.69
70300;HTU21D;57704;51.112;5.878;2022-12-20T00:26:25;14.24;62.64
70300;HTU21D;57704;51.112;5.878;2022-12-20T00:28:52;14.24;62.45
70300;HTU21D;57704;51.112;5.878;2022-12-20T00:31:20;14.29;62.41
70300;HTU21D;57704;51.112;5.878;2022-12-20T00:33:49;14.27;62.46
70300;HTU21D;57704;51.112;5.878;2022-12-20T00:36:17;14.25;62.41
70300;HTU21D;57704;51.112;5.878;2022-12-20T00:38:50;14.25;62.29
70300;HTU21D;57704;51.112;5.878;2022-12-20T00:41:20;14.22;62.47
70300;HTU21D;57704;51.112;5.878;2022-12-20T00:43:47;14.22;62.37
70300;HTU21D;57704;51.112;5.878;2022-12-20T00:46:15;14.18;62.31
70300;HTU21D;57704;51.112;5.878;2022-12-20T00:48:41;14.15;62.63
70300;HTU21D;57704;51.112;5.878;2022-12-20T00:51:10;14.17;62.60
70300;HTU21D;57704;51.112;5.878;2022-12-20T00:53:38;14.18;62.44
70300;HTU21D;57704;51.112;5.878;2022-12-20T00:56:05;14.17;62.49
70300;HTU21D;57704;51.112;5.878;2022-12-20T00:58:34;14.13;62.58
70300;HTU21D;57704;51.112;5.878;2022-12-20T01:01:01;14.13;62.80
70300;HTU21D;57704;51.112;5.878;2022-12-20T01:03:28;14.08;62.99
70300;HTU21D;57704;51.112;5.878;2022-12-20T01:05:59;14.07;63.02
70300;HTU21D;57704;51.112;5.878;2022-12-20T01:08:28;14.06;63.02
70300;HTU21D;57704;51.112;5.878;2022-12-20T01:11:16;14.06;63.10
70300;HTU21D;57704;51.112;5.878;2022-12-20T01:13:47;14.05;63.15
70300;HTU21D;57704;51.112;5.878;2022-12-20T01:16:17;14.08;63.09
70300;HTU21D;57704;51.112;5.878;2022-12-20T01:18:45;14.11;62.92
70300;HTU21D;57704;51.112;5.878;2022-12-20T01:21:13;14.11;63.11
70300;HTU21D;57704;51.112;5.878;2022-12-20T01:23:40;14.11;63.13
70300;HTU21D;57704;51.112;5.878;2022-12-20T01:26:10;14.12;63.09
70300;HTU21D;57704;51.112;5.878;2022-12-20T01:28:42;14.13;63.01
70300;HTU21D;57704;51.112;5.878;2022-12-20T01:31:12;14.13;63.20
70300;HTU21D;57704;51.112;5.878;2022-12-20T01:33:38;14.13;63.17
70300;HTU21D;57704;51.112;5.878;2022-12-20T01:36:08;14.17;63.14
70300;HTU21D;57704;51.112;5.878;2022-12-20T01:38:35;14.15;63.16
70300;HTU21D;57704;51.112;5.878;2022-12-20T01:41:02;14.17;63.11
70300;HTU21D;57704;51.112;5.878;2022-12-20T01:43:47;14.18;63.05
70300;HTU21D;57704;51.112;5.878;2022-12-20T01:46:14;14.21;63.18
70300;HTU21D;57704;51.112;5.878;2022-12-20T01:48:43;14.09;64.08
70300;HTU21D;57704;51.112;5.878;2022-12-20T01:51:11;13.93;64.86
70300;HTU21D;57704;51.112;5.878;2022-12-20T01:53:37;13.65;65.94
70300;HTU21D;57704;51.112;5.878;2022-12-20T01:56:06;13.44;67.37
70300;HTU21D;57704;51.112;5.878;2022-12-20T01:58:37;13.22;68.01
70300;HTU21D;57704;51.112;5.878;2022-12-20T02:01:04;13.14;68.80
70300;HTU21D;57704;51.112;5.878;2022-12-20T02:03:31;13.06;69.10
70300;HTU21D;57704;51.112;5.878;2022-12-20T02:06:13;13.03;69.36
70300;HTU21D;57704;51.112;5.878;2022-12-20T02:08:40;13.11;69.17
70300;HTU21D;57704;51.112;5.878;2022-12-20T02:13:58;13.08;69.16
70300;HTU21D;57704;51.112;5.878;2022-12-20T02:16:35;13.04;69.54
70300;HTU21D;57704;51.112;5.878;2022-12-20T02:19:35;12.94;70.01
70300;HTU21D;57704;51.112;5.878;2022-12-20T02:28:02;12.97;69.75
70300;HTU21D;57704;51.112;5.878;2022-12-20T02:30:38;12.90;70.26
70300;HTU21D;57704;51.112;5.878;2022-12-20T02:33:10;12.88;70.39
70300;HTU21D;57704;51.112;5.878;2022-12-20T02:35:39;12.84;70.67
70300;HTU21D;57704;51.112;5.878;2022-12-20T02:41:05;12.80;70.90
70300;HTU21D;57704;51.112;5.878;2022-12-20T02:43:35;12.86;70.91
70300;HTU21D;57704;51.112;5.878;2022-12-20T02:46:23;12.86;71.24
70300;HTU21D;57704;51.112;5.878;2022-12-20T02:48:55;12.88;71.03
70300;HTU21D;57704;51.112;5.878;2022-12-20T02:51:26;12.91;71.11
70300;HTU21D;57704;51.112;5.878;2022-12-20T02:53:57;12.87;71.31
70300;HTU21D;57704;51.112;5.878;2022-12-20T02:56:56;12.91;71.05
70300;HTU21D;57704;51.112;5.878;2022-12-20T02:59:37;12.89;71.08
70300;HTU21D;57704;51.112;5.878;2022-12-20T03:02:10;12.87;71.28
70300;HTU21D;57704;51.112;5.878;2022-12-20T03:04:39;12.88;71.06
70300;HTU21D;57704;51.112;5.878;2022-12-20T03:07:10;12.85;71.30
70300;HTU21D;57704;51.112;5.878;2022-12-20T03:09:39;12.86;71.19
70300;HTU21D;57704;51.112;5.878;2022-12-20T03:12:07;12.85;71.22
70300;HTU21D;57704;51.112;5.878;2022-12-20T03:14:37;12.82;71.53
70300;HTU21D;57704;51.112;5.878;2022-12-20T03:17:07;12.75;72.29
70300;HTU21D;57704;51.112;5.878;2022-12-20T03:19:33;12.71;72.06
70300;HTU21D;57704;51.112;5.878;2022-12-20T03:22:00;12.67;72.15
70300;HTU21D;57704;51.112;5.878;2022-12-20T03:24:26;12.64;72.61
70300;HTU21D;57704;51.112;5.878;2022-12-20T03:26:53;12.57;72.89
70300;HTU21D;57704;51.112;5.878;2022-12-20T03:29:22;12.59;72.77
70300;HTU21D;57704;51.112;5.878;2022-12-20T03:31:49;12.53;73.14
70300;HTU21D;57704;51.112;5.878;2022-12-20T03:34:15;12.51;73.54
70300;HTU21D;57704;51.112;5.878;2022-12-20T03:36:42;12.48;73.68
70300;HTU21D;57704;51.112;5.878;2022-12-20T03:39:09;12.45;73.79
70300;HTU21D;57704;51.112;5.878;2022-12-20T03:41:38;12.37;74.70
70300;HTU21D;57704;51.112;5.878;2022-12-20T03:44:06;12.32;74.55
70300;HTU21D;57704;51.112;5.878;2022-12-20T03:46:32;12.29;75.01
70300;HTU21D;57704;51.112;5.878;2022-12-20T03:48:58;12.23;75.13
70300;HTU21D;57704;51.112;5.878;2022-12-20T03:51:25;12.22;74.97
70300;HTU21D;57704;51.112;5.878;2022-12-20T03:53:51;12.16;75.70
70300;HTU21D;57704;51.112;5.878;2022-12-20T03:56:19;12.11;75.76
70300;HTU21D;57704;51.112;5.878;2022-12-20T03:58:45;12.08;76.21
70300;HTU21D;57704;51.112;5.878;2022-12-20T04:01:20;12.05;76.37
70300;HTU21D;57704;51.112;5.878;2022-12-20T04:03:47;12.04;77.34
70300;HTU21D;57704;51.112;5.878;2022-12-20T04:06:14;12.11;76.60
70300;HTU21D;57704;51.112;5.878;2022-12-20T04:08:41;12.14;76.53
70300;HTU21D;57704;51.112;5.878;2022-12-20T04:11:09;12.10;76.79
70300;HTU21D;57704;51.112;5.878;2022-12-20T04:13:50;12.15;77.01
70300;HTU21D;57704;51.112;5.878;2022-12-20T04:16:23;12.16;76.94
70300;HTU21D;57704;51.112;5.878;2022-12-20T04:18:49;12.12;77.00
70300;HTU21D;57704;51.112;5.878;2022-12-20T04:21:22;12.11;76.92
70300;HTU21D;57704;51.112;5.878;2022-12-20T04:23:51;12.11;77.19
70300;HTU21D;57704;51.112;5.878;2022-12-20T04:26:19;12.12;77.31
70300;HTU21D;57704;51.112;5.878;2022-12-20T04:28:45;12.07;77.37
70300;HTU21D;57704;51.112;5.878;2022-12-20T04:31:11;12.06;77.53
70300;HTU21D;57704;51.112;5.878;2022-12-20T04:33:41;12.06;77.47
70300;HTU21D;57704;51.112;5.878;2022-12-20T04:36:07;12.06;77.54
70300;HTU21D;57704;51.112;5.878;2022-12-20T04:38:34;12.06;77.47
70300;HTU21D;57704;51.112;5.878;2022-12-20T04:41:00;12.08;77.37
70300;HTU21D;57704;51.112;5.878;2022-12-20T04:43:35;12.08;77.38
70300;HTU21D;57704;51.112;5.878;2022-12-20T04:46:03;12.11;77.24
70300;HTU21D;57704;51.112;5.878;2022-12-20T04:48:29;12.08;77.18
70300;HTU21D;57704;51.112;5.878;2022-12-20T04:50:55;12.06;77.20
70300;HTU21D;57704;51.112;5.878;2022-12-20T04:53:23;12.07;77.27
70300;HTU21D;57704;51.112;5.878;2022-12-20T04:56:09;12.05;77.18
70300;HTU21D;57704;51.112;5.878;2022-12-20T04:58:36;12.02;77.23
70300;HTU21D;57704;51.112;5.878;2022-12-20T05:01:04;12.06;76.76
70300;HTU21D;57704;51.112;5.878;2022-12-20T05:03:40;12.04;76.57
70300;HTU21D;57704;51.112;5.878;2022-12-20T05:06:07;12.02;76.70
70300;HTU21D;57704;51.112;5.878;2022-12-20T05:08:34;12.04;76.56
70300;HTU21D;57704;51.112;5.878;2022-12-20T05:11:03;12.01;76.47
70300;HTU21D;57704;51.112;5.878;2022-12-20T05:13:31;12.04;76.31
70300;HTU21D;57704;51.112;5.878;2022-12-20T05:15:58;12.05;76.21
70300;HTU21D;57704;51.112;5.878;2022-12-20T05:18:28;12.05;76.05
70300;HTU21D;57704;51.112;5.878;2022-12-20T05:21:02;12.06;75.90
70300;HTU21D;57704;51.112;5.878;2022-12-20T05:23:53;12.12;75.55
70300;HTU21D;57704;51.112;5.878;2022-12-20T05:27:16;12.20;74.92
70300;HTU21D;57704;51.112;5.878;2022-12-20T05:29:42;12.25;74.67
70300;HTU21D;57704;51.112;5.878;2022-12-20T05:32:09;12.22;74.54
70300;HTU21D;57704;51.112;5.878;2022-12-20T05:34:38;12.29;74.24
70300;HTU21D;57704;51.112;5.878;2022-12-20T05:37:06;12.36;73.66
70300;HTU21D;57704;51.112;5.878;2022-12-20T05:39:34;12.33;73.73
70300;HTU21D;57704;51.112;5.878;2022-12-20T05:42:05;12.32;73.64
70300;HTU21D;57704;51.112;5.878;2022-12-20T05:44:31;12.37;73.42
70300;HTU21D;57704;51.112;5.878;2022-12-20T05:46:58;12.41;73.32
70300;HTU21D;57704;51.112;5.878;2022-12-20T05:49:28;12.41;73.01
70300;HTU21D;57704;51.112;5.878;2022-12-20T05:51:55;12.48;72.82
70300;HTU21D;57704;51.112;5.878;2022-12-20T05:54:24;12.49;72.64
70300;HTU21D;57704;51.112;5.878;2022-12-20T05:56:58;12.56;72.00
70300;HTU21D;57704;51.112;5.878;2022-12-20T05:59:32;12.59;71.72
70300;HTU21D;57704;51.112;5.878;2022-12-20T06:01:58;12.60;71.80
70300;HTU21D;57704;51.112;5.878;2022-12-20T06:04:25;12.62;71.74
70300;HTU21D;57704;51.112;5.878;2022-12-20T06:06:52;12.69;71.41
70300;HTU21D;57704;51.112;5.878;2022-12-20T06:09:19;12.67;71.43
70300;HTU21D;57704;51.112;5.878;2022-12-20T06:12:00;12.72;71.09
70300;HTU21D;57704;51.112;5.878;2022-12-20T06:14:28;12.77;70.90
70300;HTU21D;57704;51.112;5.878;2022-12-20T06:16:56;12.79;70.71
70300;HTU21D;57704;51.112;5.878;2022-12-20T06:19:22;12.81;70.72
70300;HTU21D;57704;51.112;5.878;2022-12-20T06:21:52;12.82;70.67
70300;HTU21D;57704;51.112;5.878;2022-12-20T06:24:25;12.85;70.42
70300;HTU21D;57704;51.112;5.878;2022-12-20T06:26:53;12.94;69.78
70300;HTU21D;57704;51.112;5.878;2022-12-20T06:29:20;12.92;69.99
70300;HTU21D;57704;51.112;5.878;2022-12-20T06:31:53;12.95;69.85
70300;HTU21D;57704;51.112;5.878;2022-12-20T06:34:19;12.97;69.61
70300;HTU21D;57704;51.112;5.878;2022-12-20T06:36:46;12.93;69.51
70300;HTU21D;57704;51.112;5.878;2022-12-20T06:39:18;12.99;69.20
70300;HTU21D;57704;51.112;5.878;2022-12-20T06:41:55;13.02;69.04
70300;HTU21D;57704;51.112;5.878;2022-12-20T06:44:21;13.06;68.88
70300;HTU21D;57704;51.112;5.878;2022-12-20T06:46:49;13.10;68.61
70300;HTU21D;57704;51.112;5.878;2022-12-20T06:49:15;13.12;68.62
70300;HTU21D;57704;51.112;5.878;2022-12-20T06:51:42;13.17;68.56
70300;HTU21D;57704;51.112;5.878;2022-12-20T06:54:08;13.16;68.17
70300;HTU21D;57704;51.112;5.878;2022-12-20T06:56:35;13.23;68.14
70300;HTU21D;57704;51.112;5.878;2022-12-20T06:59:04;13.24;68.04
70300;HTU21D;57704;51.112;5.878;2022-12-20T07:01:30;13.24;68.07
70300;HTU21D;57704;51.112;5.878;2022-12-20T07:03:58;13.25;68.00
70300;HTU21D;57704;51.112;5.878;2022-12-20T07:06:24;13.27;67.85
70300;HTU21D;57704;51.112;5.878;2022-12-20T07:08:52;13.31;67.65
70300;HTU21D;57704;51.112;5.878;2022-12-20T07:11:18;13.27;67.42
70300;HTU21D;57704;51.112;5.878;2022-12-20T07:13:44;13.25;67.23
70300;HTU21D;57704;51.112;5.878;2022-12-20T07:16:11;13.29;67.33
70300;HTU21D;57704;51.112;5.878;2022-12-20T07:18:38;13.25;67.50
70300;HTU21D;57704;51.112;5.878;2022-12-20T07:21:08;13.25;67.43
70300;HTU21D;57704;51.112;5.878;2022-12-20T07:23:34;13.25;67.45
70300;HTU21D;57704;51.112;5.878;2022-12-20T07:26:01;13.23;67.54
70300;HTU21D;57704;51.112;5.878;2022-12-20T07:28:28;13.26;67.35
70300;HTU21D;57704;51.112;5.878;2022-12-20T07:31:00;13.25;67.45
70300;HTU21D;57704;51.112;5.878;2022-12-20T07:33:29;13.26;67.35
70300;HTU21D;57704;51.112;5.878;2022-12-20T07:36:07;13.29;67.17
70300;HTU21D;57704;51.112;5.878;2022-12-20T07:38:35;13.32;67.27
70300;HTU21D;57704;51.112;5.878;2022-12-20T07:41:21;13.33;67.10
70300;HTU21D;57704;51.112;5.878;2022-12-20T07:43:49;13.37;67.01
70300;HTU21D;57704;51.112;5.878;2022-12-20T07:46:15;13.44;66.53
70300;HTU21D;57704;51.112;5.878;2022-12-20T07:48:42;13.40;66.93
70300;HTU21D;57704;51.112;5.878;2022-12-20T07:51:15;13.39;66.85
70300;HTU21D;57704;51.112;5.878;2022-12-20T07:56:50;13.40;66.60
70300;HTU21D;57704;51.112;5.878;2022-12-20T07:59:22;13.41;66.72
70300;HTU21D;57704;51.112;5.878;2022-12-20T08:01:50;13.43;66.60
70300;HTU21D;57704;51.112;5.878;2022-12-20T08:04:22;13.40;66.37
70300;HTU21D;57704;51.112;5.878;2022-12-20T08:06:52;13.44;66.72
70300;HTU21D;57704;51.112;5.878;2022-12-20T08:09:22;13.43;66.76
70300;HTU21D;57704;51.112;5.878;2022-12-20T08:11:51;13.45;66.69
70300;HTU21D;57704;51.112;5.878;2022-12-20T08:14:19;13.47;66.71
70300;HTU21D;57704;51.112;5.878;2022-12-20T08:16:45;13.48;66.65
70300;HTU21D;57704;51.112;5.878;2022-12-20T08:19:11;13.47;66.71
70300;HTU21D;57704;51.112;5.878;2022-12-20T08:21:38;13.46;66.84
70300;HTU21D;57704;51.112;5.878;2022-12-20T08:24:04;13.46;66.75
70300;HTU21D;57704;51.112;5.878;2022-12-20T08:26:31;13.46;66.53
70300;HTU21D;57704;51.112;5.878;2022-12-20T08:29:01;13.49;66.56
70300;HTU21D;57704;51.112;5.878;2022-12-20T08:31:27;13.50;66.32
70300;HTU21D;57704;51.112;5.878;2022-12-20T08:33:54;13.56;66.32
70300;HTU21D;57704;51.112;5.878;2022-12-20T08:36:20;13.60;66.23
70300;HTU21D;57704;51.112;5.878;2022-12-20T08:38:46;13.65;66.12
70300;HTU21D;57704;51.112;5.878;2022-12-20T08:41:14;13.69;66.12
70300;HTU21D;57704;51.112;5.878;2022-12-20T08:43:42;13.59;66.74
70300;HTU21D;57704;51.112;5.878;2022-12-20T08:46:09;13.43;67.55
70300;HTU21D;57704;51.112;5.878;2022-12-20T08:48:37;13.30;67.88
70300;HTU21D;57704;51.112;5.878;2022-12-20T08:51:08;13.20;68.17
70300;HTU21D;57704;51.112;5.878;2022-12-20T08:53:37;13.25;68.07
70300;HTU21D;57704;51.112;5.878;2022-12-20T08:58:34;13.29;68.07
70300;HTU21D;57704;51.112;5.878;2022-12-20T09:01:04;13.33;67.98
70300;HTU21D;57704;51.112;5.878;2022-12-20T09:03:32;13.37;67.89
70300;HTU21D;57704;51.112;5.878;2022-12-20T09:06:11;13.46;67.40
70300;HTU21D;57704;51.112;5.878;2022-12-20T09:08:39;13.48;67.64
70300;HTU21D;57704;51.112;5.878;2022-12-20T09:11:15;13.53;67.30
70300;HTU21D;57704;51.112;5.878;2022-12-20T09:13:44;13.60;67.22
70300;HTU21D;57704;51.112;5.878;2022-12-20T09:16:16;13.65;67.19
70300;HTU21D;57704;51.112;5.878;2022-12-20T09:18:43;13.70;66.77
70300;HTU21D;57704;51.112;5.878;2022-12-20T09:21:10;13.76;66.85
70300;HTU21D;57704;51.112;5.878;2022-12-20T09:23:37;13.78;66.90
70300;HTU21D;57704;51.112;5.878;2022-12-20T09:26:06;13.80;66.92
70300;HTU21D;57704;51.112;5.878;2022-12-20T09:28:33;13.76;67.39
70300;HTU21D;57704;51.112;5.878;2022-12-20T09:31:03;13.66;67.87
70300;HTU21D;57704;51.112;5.878;2022-12-20T09:33:32;13.56;68.36
70300;HTU21D;57704;51.112;5.878;2022-12-20T09:36:00;13.44;68.80
70300;HTU21D;57704;51.112;5.878;2022-12-20T09:38:28;13.41;68.94
70300;HTU21D;57704;51.112;5.878;2022-12-20T09:41:06;13.43;69.20
70300;HTU21D;57704;51.112;5.878;2022-12-20T09:43:35;13.40;69.22
70300;HTU21D;57704;51.112;5.878;2022-12-20T09:46:03;13.43;69.32
70300;HTU21D;57704;51.112;5.878;2022-12-20T09:48:33;13.45;69.35
70300;HTU21D;57704;51.112;5.878;2022-12-20T09:56:58;13.40;69.84
70300;HTU21D;57704;51.112;5.878;2022-12-20T09:59:28;13.40;69.90
70300;HTU21D;57704;51.112;5.878;2022-12-20T10:01:57;13.44;69.90
70300;HTU21D;57704;51.112;5.878;2022-12-20T10:04:29;13.52;69.45
70300;HTU21D;57704;51.112;5.878;2022-12-20T10:07:07;13.54;69.60
70300;HTU21D;57704;51.112;5.878;2022-12-20T10:10:18;13.74;68.84
70300;HTU21D;57704;51.112;5.878;2022-12-20T10:15:31;13.89;68.37
70300;HTU21D;57704;51.112;5.878;2022-12-20T10:21:07;14.08;67.97
70300;HTU21D;57704;51.112;5.878;2022-12-20T10:23:50;14.17;67.88
70300;HTU21D;57704;51.112;5.878;2022-12-20T10:26:22;14.26;67.53
70300;HTU21D;57704;51.112;5.878;2022-12-20T10:28:49;14.29;67.23
70300;HTU21D;57704;51.112;5.878;2022-12-20T10:31:18;14.37;66.90
70300;HTU21D;57704;51.112;5.878;2022-12-20T10:33:51;14.34;67.24
70300;HTU21D;57704;51.112;5.878;2022-12-20T10:38:50;14.38;67.25
70300;HTU21D;57704;51.112;5.878;2022-12-20T10:41:20;14.40;66.99
70300;HTU21D;57704;51.112;5.878;2022-12-20T10:46:53;14.40;67.17
70300;HTU21D;57704;51.112;5.878;2022-12-20T10:49:28;14.50;67.09
70300;HTU21D;57704;51.112;5.878;2022-12-20T10:52:02;14.51;67.07
70300;HTU21D;57704;51.112;5.878;2022-12-20T10:54:34;14.52;67.08
70300;HTU21D;57704;51.112;5.878;2022-12-20T10:57:18;14.54;67.04
70300;HTU21D;57704;51.112;5.878;2022-12-20T11:00:00;14.52;67.13
70300;HTU21D;57704;51.112;5.878;2022-12-20T11:02:35;14.52;67.19
70300;HTU21D;57704;51.112;5.878;2022-12-20T11:07:55;14.29;68.30
70300;HTU21D;57704;51.112;5.878;2022-12-20T11:10:26;14.20;68.94
70300;HTU21D;57704;51.112;5.878;2022-12-20T11:13:00;14.17;68.78
70300;HTU21D;57704;51.112;5.878;2022-12-20T11:15:32;14.15;69.19
70300;HTU21D;57704;51.112;5.878;2022-12-20T11:18:22;14.18;68.86
70300;HTU21D;57704;51.112;5.878;2022-12-20T11:24:13;14.35;68.50
70300;HTU21D;57704;51.112;5.878;2022-12-20T11:27:02;14.51;68.10
70300;HTU21D;57704;51.112;5.878;2022-12-20T11:32:37;14.74;67.22
70300;HTU21D;57704;51.112;5.878;2022-12-20T11:40:33;14.70;67.05
70300;HTU21D;57704;51.112;5.878;2022-12-20T11:46:52;14.36;68.62
70300;HTU21D;57704;51.112;5.878;2022-12-20T11:49:20;14.12;69.64
70300;HTU21D;57704;51.112;5.878;2022-12-20T11:52:07;13.98;70.46
70300;HTU21D;57704;51.112;5.878;2022-12-20T11:55:00;13.93;70.74
70300;HTU21D;57704;51.112;5.878;2022-12-20T11:58:10;13.88;70.69
70300;HTU21D;57704;51.112;5.878;2022-12-20T12:00:40;13.85;71.14
70300;HTU21D;57704;51.112;5.878;2022-12-20T12:03:24;13.86;71.19
70300;HTU21D;57704;51.112;5.878;2022-12-20T12:05:57;13.81;71.35
70300;HTU21D;57704;51.112;5.878;2022-12-20T12:08:44;13.84;71.64
70300;HTU21D;57704;51.112;5.878;2022-12-20T12:11:23;13.80;72.67
70300;HTU21D;57704;51.112;5.878;2022-12-20T12:14:04;13.65;73.32
70300;HTU21D;57704;51.112;5.878;2022-12-20T12:16:36;13.56;73.32
70300;HTU21D;57704;51.112;5.878;2022-12-20T12:19:09;13.56;73.71
70300;HTU21D;57704;51.112;5.878;2022-12-20T12:21:52;13.43;74.47
70300;HTU21D;57704;51.112;5.878;2022-12-20T12:24:34;13.20;75.82
70300;HTU21D;57704;51.112;5.878;2022-12-20T12:27:04;13.12;75.92
70300;HTU21D;57704;51.112;5.878;2022-12-20T12:29:33;13.05;76.63
70300;HTU21D;57704;51.112;5.878;2022-12-20T12:32:07;13.04;76.67
70300;HTU21D;57704;51.112;5.878;2022-12-20T12:45:51;12.87;77.92
70300;HTU21D;57704;51.112;5.878;2022-12-20T12:48:34;12.87;78.06
70300;HTU21D;57704;51.112;5.878;2022-12-20T12:51:04;12.86;78.20
70300;HTU21D;57704;51.112;5.878;2022-12-20T12:53:47;12.87;78.00
70300;HTU21D;57704;51.112;5.878;2022-12-20T12:56:28;12.89;78.01
70300;HTU21D;57704;51.112;5.878;2022-12-20T13:01:54;12.82;77.78
70300;HTU21D;57704;51.112;5.878;2022-12-20T13:12:59;12.55;78.90
70300;HTU21D;57704;51.112;5.878;2022-12-20T13:21:16;12.23;80.21
70300;HTU21D;57704;51.112;5.878;2022-12-20T13:23:47;12.21;80.52
70300;HTU21D;57704;51.112;5.878;2022-12-20T13:26:47;12.13;80.92
70300;HTU21D;57704;51.112;5.878;2022-12-20T13:30:22;12.08;81.17
70300;HTU21D;57704;51.112;5.878;2022-12-20T13:37:56;12.04;81.78
70300;HTU21D;57704;51.112;5.878;2022-12-20T13:43:34;11.99;82.07
70300;HTU21D;57704;51.112;5.878;2022-12-20T13:51:08;11.86;83.43
70300;HTU21D;57704;51.112;5.878;2022-12-20T13:53:40;11.84;82.75
70300;HTU21D;57704;51.112;5.878;2022-12-20T13:56:33;11.77;83.01
70300;HTU21D;57704;51.112;5.878;2022-12-20T13:59:11;11.76;83.16
70300;HTU21D;57704;51.112;5.878;2022-12-20T14:01:54;11.81;83.12
70300;HTU21D;57704;51.112;5.878;2022-12-20T14:04:39;11.75;83.27
70300;HTU21D;57704;51.112;5.878;2022-12-20T14:07:16;11.73;83.60
70300;HTU21D;57704;51.112;5.878;2022-12-20T14:09:46;11.76;83.53
70300;HTU21D;57704;51.112;5.878;2022-12-20T14:12:18;11.73;83.58
70300;HTU21D;57704;51.112;5.878;2022-12-20T14:14:50;11.76;83.82
70300;HTU21D;57704;51.112;5.878;2022-12-20T14:17:25;11.74;83.67
70300;HTU21D;57704;51.112;5.878;2022-12-20T14:25:46;11.67;83.97
70300;HTU21D;57704;51.112;5.878;2022-12-20T14:31:40;11.70;84.42
70300;HTU21D;57704;51.112;5.878;2022-12-20T14:36:44;11.71;84.12
70300;HTU21D;57704;51.112;5.878;2022-12-20T14:39:30;11.71;84.04
70300;HTU21D;57704;51.112;5.878;2022-12-20T14:42:00;11.72;84.42
70300;HTU21D;57704;51.112;5.878;2022-12-20T14:44:30;11.68;84.61
70300;HTU21D;57704;51.112;5.878;2022-12-20T14:52:38;11.64;84.27
70300;HTU21D;57704;51.112;5.878;2022-12-20T14:55:10;11.67;84.32
70300;HTU21D;57704;51.112;5.878;2022-12-20T14:57:48;11.63;84.44
70300;HTU21D;57704;51.112;5.878;2022-12-20T15:00:24;11.66;84.52
70300;HTU21D;57704;51.112;5.878;2022-12-20T15:08:18;11.68;84.49
70300;HTU21D;57704;51.112;5.878;2022-12-20T15:13:43;11.70;84.45
70300;HTU21D;57704;51.112;5.878;2022-12-20T15:16:27;11.69;84.35
70300;HTU21D;57704;51.112;5.878;2022-12-20T15:18:59;11.68;84.37
70300;HTU21D;57704;51.112;5.878;2022-12-20T15:21:30;11.70;84.45
70300;HTU21D;57704;51.112;5.878;2022-12-20T15:24:00;11.70;84.31
70300;HTU21D;57704;51.112;5.878;2022-12-20T15:26:28;11.73;84.29
70300;HTU21D;57704;51.112;5.878;2022-12-20T15:28:58;11.73;84.35
70300;HTU21D;57704;51.112;5.878;2022-12-20T15:31:27;11.71;84.40
70300;HTU21D;57704;51.112;5.878;2022-12-20T15:33:54;11.71;84.45
70300;HTU21D;57704;51.112;5.878;2022-12-20T15:36:25;11.72;84.54
70300;HTU21D;57704;51.112;5.878;2022-12-20T15:38:56;11.69;84.55
70300;HTU21D;57704;51.112;5.878;2022-12-20T15:41:31;11.75;84.45
70300;HTU21D;57704;51.112;5.878;2022-12-20T15:44:02;11.69;84.79
70300;HTU21D;57704;51.112;5.878;2022-12-20T15:46:31;11.70;84.49
70300;HTU21D;57704;51.112;5.878;2022-12-20T15:48:58;11.71;84.46
70300;HTU21D;57704;51.112;5.878;2022-12-20T15:51:29;11.71;84.46
70300;HTU21D;57704;51.112;5.878;2022-12-20T15:53:56;11.68;84.46
70300;HTU21D;57704;51.112;5.878;2022-12-20T15:56:24;11.68;84.59
70300;HTU21D;57704;51.112;5.878;2022-12-20T15:58:51;11.72;84.33
70300;HTU21D;57704;51.112;5.878;2022-12-20T16:03:47;11.66;84.56
70300;HTU21D;57704;51.112;5.878;2022-12-20T16:06:16;11.68;84.55
70300;HTU21D;57704;51.112;5.878;2022-12-20T16:08:42;11.67;84.48
70300;HTU21D;57704;51.112;5.878;2022-12-20T16:11:26;11.68;84.61
70300;HTU21D;57704;51.112;5.878;2022-12-20T16:13:57;11.63;84.64
70300;HTU21D;57704;51.112;5.878;2022-12-20T16:16:27;11.62;84.66
70300;HTU21D;57704;51.112;5.878;2022-12-20T16:18:54;11.63;84.74
70300;HTU21D;57704;51.112;5.878;2022-12-20T16:21:21;11.63;84.75
70300;HTU21D;57704;51.112;5.878;2022-12-20T16:23:47;11.62;84.74
70300;HTU21D;57704;51.112;5.878;2022-12-20T16:26:18;11.63;84.74
70300;HTU21D;57704;51.112;5.878;2022-12-20T16:28:46;11.64;84.62
70300;HTU21D;57704;51.112;5.878;2022-12-20T16:31:30;11.67;84.66
70300;HTU21D;57704;51.112;5.878;2022-12-20T16:33:58;11.63;84.71
70300;HTU21D;57704;51.112;5.878;2022-12-20T16:36:24;11.62;84.94
70300;HTU21D;57704;51.112;5.878;2022-12-20T16:38:52;11.62;84.87
70300;HTU21D;57704;51.112;5.878;2022-12-20T16:41:21;11.63;84.84
70300;HTU21D;57704;51.112;5.878;2022-12-20T16:43:49;11.62;85.04
70300;HTU21D;57704;51.112;5.878;2022-12-20T16:46:19;11.66;84.83
70300;HTU21D;57704;51.112;5.878;2022-12-20T16:48:46;11.63;84.96
70300;HTU21D;57704;51.112;5.878;2022-12-20T16:54:03;11.68;84.98
70300;HTU21D;57704;51.112;5.878;2022-12-20T16:56:32;11.69;84.96
70300;HTU21D;57704;51.112;5.878;2022-12-20T16:59:04;11.72;84.92
70300;HTU21D;57704;51.112;5.878;2022-12-20T17:01:34;11.73;84.80
70300;HTU21D;57704;51.112;5.878;2022-12-20T17:04:01;11.76;84.85
70300;HTU21D;57704;51.112;5.878;2022-12-20T17:06:29;11.72;84.93
70300;HTU21D;57704;51.112;5.878;2022-12-20T17:08:56;11.72;84.95
70300;HTU21D;57704;51.112;5.878;2022-12-20T17:11:31;11.71;85.06
70300;HTU21D;57704;51.112;5.878;2022-12-20T17:13:59;11.71;85.00
70300;HTU21D;57704;51.112;5.878;2022-12-20T17:16:26;11.70;84.99
70300;HTU21D;57704;51.112;5.878;2022-12-20T17:18:55;11.71;85.12
70300;HTU21D;57704;51.112;5.878;2022-12-20T17:21:37;11.71;85.05
70300;HTU21D;57704;51.112;5.878;2022-12-20T17:24:17;11.72;85.03
70300;HTU21D;57704;51.112;5.878;2022-12-20T17:26:47;11.71;84.97
70300;HTU21D;57704;51.112;5.878;2022-12-20T17:29:13;11.72;84.97
70300;HTU21D;57704;51.112;5.878;2022-12-20T17:31:42;11.73;84.99
70300;HTU21D;57704;51.112;5.878;2022-12-20T17:34:18;11.73;84.87
70300;HTU21D;57704;51.112;5.878;2022-12-20T17:36:46;11.72;84.91
70300;HTU21D;57704;51.112;5.878;2022-12-20T17:39:13;11.73;84.87
70300;HTU21D;57704;51.112;5.878;2022-12-20T17:41:41;11.74;84.95
70300;HTU21D;57704;51.112;5.878;2022-12-20T17:44:27;11.73;85.07
70300;HTU21D;57704;51.112;5.878;2022-12-20T17:46:56;11.72;84.94